| time (UTC) | temp F | wind direction | speed MPH | gust MPH | rain 1hr in | rain 24hr in | rain mn in | humidity % | barometer mb |
| 20260505164504 | 54 | 230 | 3.0 | 6.0 | 0.00 | 0.01 | 0.01 | 91 | 1017.3 |
| 20260505163003 | 54 | 206 | 0.0 | 5.0 | 0.00 | 0.01 | 0.01 | 92 | 1017.2 |
| 20260505161503 | 54 | 217 | 1.0 | 6.0 | 0.00 | 0.01 | 0.01 | 92 | 1017.2 |
| 20260505153100 | 54 | 147 | 0.0 | 0.0 | 0.00 | 0.02 | 0.01 | 95 | 1017.2 |
| 20260505151557 | 54 | 147 | 0.0 | 0.0 | 0.00 | 0.02 | 0.01 | 96 | 1017.0 |
| 20260505124545 | 52 | 163 | 1.0 | 5.0 | 0.00 | 0.05 | 0.01 | 96 | 1016.3 |
| 20260505123102 | 53 | 146 | 1.0 | 4.0 | 0.01 | 0.05 | 0.01 | 96 | 1016.3 |
| 20260505121542 | 53 | 138 | 0.0 | 0.0 | 0.01 | 0.05 | 0.01 | 96 | 1016.2 |
| 20260505120045 | 53 | 137 | 0.0 | 0.0 | 0.01 | 0.05 | 0.01 | 96 | 1016.1 |
| 20260505114558 | 53 | 138 | 0.0 | 0.0 | 0.01 | 0.05 | 0.01 | 95 | 1016.1 |
| 20260505113041 | 53 | 153 | 0.0 | 0.0 | 0.00 | 0.04 | 0.00 | 95 | 1016.1 |
| 20260505111554 | 53 | 161 | 0.0 | 0.0 | 0.00 | 0.04 | 0.00 | 95 | 1016.1 |
| 20260505101535 | 53 | 136 | 0.0 | 3.0 | 0.00 | 0.05 | 0.00 | 93 | 1015.8 |
| 20260505100036 | 54 | 153 | 0.0 | 4.0 | 0.00 | 0.05 | 0.00 | 93 | 1015.8 |
| 20260505094536 | 54 | 157 | 0.0 | 1.0 | 0.00 | 0.06 | 0.00 | 93 | 1015.8 |
| 20260505093034 | 54 | 140 | 0.0 | 1.0 | 0.00 | 0.06 | 0.00 | 93 | 1015.7 |
| 20260505091535 | 54 | 173 | 0.0 | 5.0 | 0.00 | 0.06 | 0.00 | 93 | 1015.7 |
| 20260505090036 | 54 | 137 | 0.0 | 3.0 | 0.00 | 0.06 | 0.00 | 93 | 1015.6 |
| 20260505084530 | 54 | 152 | 1.0 | 4.0 | 0.00 | 0.07 | 0.00 | 93 | 1015.7 |
| 20260505083040 | 53 | 133 | 1.0 | 5.0 | 0.00 | 0.07 | 0.00 | 93 | 1015.7 |
| 20260505081533 | 54 | 133 | 1.0 | 5.0 | 0.00 | 0.07 | 0.00 | 93 | 1015.8 |
| 20260505080036 | 54 | 192 | 1.0 | 4.0 | 0.00 | 0.07 | 0.00 | 93 | 1016.0 |
| 20260505074526 | 53 | 185 | 0.0 | 5.0 | 0.00 | 0.07 | 0.00 | 93 | 1016.1 |
| 20260505073025 | 53 | 168 | 1.0 | 4.0 | 0.00 | 0.07 | 0.00 | 93 | 1016.0 |
| 20260505071523 | 53 | 153 | 0.0 | 5.0 | 0.00 | 0.07 | 0.00 | 93 | 1016.1 |
| 20260505070022 | 53 | 168 | 0.0 | 5.0 | 0.00 | 0.07 | 0.00 | 94 | 1016.1 |
| 20260505064520 | 53 | 153 | 1.0 | 4.0 | 0.00 | 0.07 | 0.07 | 94 | 1016.0 |
| 20260505063020 | 54 | 158 | 0.0 | 3.0 | 0.00 | 0.07 | 0.07 | 94 | 1016.0 |
| 20260505061623 | 54 | 163 | 0.0 | 3.0 | 0.00 | 0.07 | 0.07 | 94 | 1016.0 |
| 20260505060025 | 54 | 128 | 1.0 | 5.0 | 0.00 | 0.07 | 0.07 | 94 | 1016.1 |
| 20260505054518 | 54 | 213 | 1.0 | 3.0 | 0.00 | 0.08 | 0.07 | 93 | 1016.1 |
| 20260505053018 | 54 | 159 | 2.0 | 8.0 | 0.00 | 0.08 | 0.07 | 93 | 1016.1 |
| 20260505051518 | 54 | 214 | 0.0 | 5.0 | 0.00 | 0.08 | 0.07 | 93 | 1016.0 |
| 20260505041525 | 54 | 169 | 0.0 | 4.0 | 0.00 | 0.08 | 0.07 | 93 | 1015.6 |
| 20260505040015 | 54 | 180 | 1.0 | 5.0 | 0.00 | 0.08 | 0.07 | 92 | 1015.5 |
| 20260505034514 | 54 | 210 | 0.0 | 5.0 | 0.00 | 0.08 | 0.07 | 92 | 1015.4 |
| 20260505033017 | 54 | 192 | 1.0 | 6.0 | 0.00 | 0.08 | 0.07 | 92 | 1015.3 |
| 20260505031513 | 54 | 289 | 2.0 | 5.0 | 0.00 | 0.08 | 0.07 | 92 | 1015.2 |
| 20260505030013 | 54 | 214 | 1.0 | 4.0 | 0.00 | 0.08 | 0.07 | 92 | 1015.0 |
| 20260505024532 | 55 | 230 | 2.0 | 7.0 | 0.00 | 0.08 | 0.07 | 92 | 1015.0 |
| 20260505023011 | 55 | 244 | 1.0 | 6.0 | 0.00 | 0.08 | 0.07 | 91 | 1014.9 |
| 20260505021510 | 55 | 145 | 1.0 | 6.0 | 0.00 | 0.08 | 0.07 | 90 | 1014.8 |
| 20260505020011 | 55 | 202 | 1.0 | 6.0 | 0.00 | 0.08 | 0.07 | 90 | 1014.9 |
| 20260505014510 | 56 | 200 | 1.0 | 4.0 | 0.00 | 0.08 | 0.07 | 90 | 1014.9 |
| 20260505013018 | 56 | 207 | 1.0 | 4.0 | 0.00 | 0.08 | 0.07 | 90 | 1015.2 |
| 20260505011508 | 56 | 212 | 1.0 | 7.0 | 0.00 | 0.08 | 0.07 | 89 | 1015.3 |
| 20260505010009 | 57 | 292 | 3.0 | 6.0 | 0.00 | 0.08 | 0.07 | 88 | 1015.5 |
| 20260505004505 | 57 | 237 | 3.0 | 9.0 | 0.00 | 0.08 | 0.07 | 87 | 1015.5 |
| 20260505003005 | 58 | 222 | 2.0 | 10.0 | 0.00 | 0.08 | 0.07 | 86 | 1015.4 |
| 20260505001505 | 59 | 164 | 2.0 | 8.0 | 0.00 | 0.08 | 0.07 | 84 | 1015.5 |
| 20260505000004 | 59 | 115 | 4.0 | 10.0 | 0.00 | 0.08 | 0.07 | 86 | 1015.5 |
| 20260504234503 | 58 | 188 | 4.0 | 12.0 | 0.00 | 0.08 | 0.07 | 86 | 1015.6 |
| 20260504233104 | 58 | 243 | 3.0 | 10.0 | 0.00 | 0.08 | 0.07 | 87 | 1015.7 |
| 20260504231606 | 58 | 143 | 6.0 | 11.0 | 0.00 | 0.08 | 0.07 | 86 | 1015.7 |
| 20260504230100 | 59 | 200 | 3.0 | 9.0 | 0.00 | 0.08 | 0.07 | 86 | 1015.8 |
| 20260504224557 | 59 | 228 | 3.0 | 9.0 | 0.00 | 0.08 | 0.07 | 85 | 1016.1 |
| 20260504223057 | 58 | 215 | 4.0 | 9.0 | 0.00 | 0.08 | 0.07 | 85 | 1016.2 |
| 20260504221602 | 59 | 145 | 4.0 | 9.0 | 0.00 | 0.08 | 0.07 | 85 | 1016.3 |
| 20260504220054 | 59 | 321 | 2.0 | 7.0 | 0.00 | 0.08 | 0.07 | 86 | 1016.4 |
| 20260504214551 | 58 | 268 | 4.0 | 8.0 | 0.00 | 0.08 | 0.07 | 87 | 1016.6 |
| 20260504213151 | 57 | 264 | 4.0 | 11.0 | 0.00 | 0.08 | 0.07 | 89 | 1016.4 |
| 20260504211552 | 57 | 226 | 4.0 | 9.0 | 0.00 | 0.08 | 0.07 | 89 | 1016.3 |
| 20260504210105 | 57 | 242 | 3.0 | 11.0 | 0.00 | 0.08 | 0.07 | 89 | 1016.4 |
| 20260504204558 | 57 | 213 | 5.0 | 13.0 | 0.00 | 0.08 | 0.07 | 88 | 1016.4 |
| 20260504203048 | 57 | 286 | 3.0 | 10.0 | 0.00 | 0.08 | 0.07 | 90 | 1016.4 |
| 20260504201549 | 56 | 287 | 4.0 | 10.0 | 0.00 | 0.08 | 0.07 | 90 | 1016.4 |
| 20260504200043 | 57 | 228 | 3.0 | 11.0 | 0.00 | 0.08 | 0.07 | 90 | 1016.3 |
| 20260504194600 | 56 | 214 | 4.0 | 11.0 | 0.00 | 0.08 | 0.07 | 90 | 1016.4 |
| 20260504193041 | 57 | 261 | 4.0 | 11.0 | 0.00 | 0.08 | 0.07 | 90 | 1016.3 |
| 20260504191547 | 57 | 186 | 4.0 | 12.0 | 0.00 | 0.08 | 0.07 | 91 | 1016.3 |
| 20260504190052 | 56 | 209 | 6.0 | 14.0 | 0.00 | 0.08 | 0.07 | 90 | 1016.2 |
| 20260504184540 | 56 | 245 | 7.0 | 15.0 | 0.00 | 0.08 | 0.07 | 91 | 1016.3 |
| 20260504183037 | 56 | 233 | 4.0 | 12.0 | 0.00 | 0.08 | 0.07 | 92 | 1016.3 |
| 20260504181542 | 55 | 221 | 6.0 | 14.0 | 0.00 | 0.08 | 0.07 | 93 | 1016.2 |
| 20260504180050 | 55 | 229 | 3.0 | 11.0 | 0.00 | 0.08 | 0.07 | 95 | 1016.2 |
| 20260504174532 | 54 | 212 | 4.0 | 14.0 | 0.00 | 0.08 | 0.07 | 95 | 1016.2 |
| 20260504173036 | 55 | 124 | 3.0 | 11.0 | 0.00 | 0.08 | 0.07 | 94 | 1016.1 |
| 20260504171530 | 55 | 195 | 1.0 | 7.0 | 0.00 | 0.08 | 0.07 | 96 | 1016.1 |